sensor_id;sensor_type;location;lat;lon;timestamp;P1;durP1;ratioP1;P2;durP2;ratioP2
2211;SDS011;48849;48.758;9.158;2023-12-29T00:00:48;3.42;;;2.85;;
2211;SDS011;48849;48.758;9.158;2023-12-29T00:03:15;4.00;;;2.67;;
2211;SDS011;48849;48.758;9.158;2023-12-29T00:05:42;3.50;;;2.40;;
2211;SDS011;48849;48.758;9.158;2023-12-29T00:08:08;3.15;;;2.83;;
2211;SDS011;48849;48.758;9.158;2023-12-29T00:10:35;2.90;;;2.47;;
2211;SDS011;48849;48.758;9.158;2023-12-29T00:13:02;3.28;;;2.95;;
2211;SDS011;48849;48.758;9.158;2023-12-29T00:15:29;3.38;;;2.97;;
2211;SDS011;48849;48.758;9.158;2023-12-29T00:17:57;3.72;;;3.03;;
2211;SDS011;48849;48.758;9.158;2023-12-29T00:20:23;3.20;;;2.90;;
2211;SDS011;48849;48.758;9.158;2023-12-29T00:22:50;2.97;;;2.65;;
2211;SDS011;48849;48.758;9.158;2023-12-29T00:25:17;2.95;;;2.75;;
2211;SDS011;48849;48.758;9.158;2023-12-29T00:27:44;2.90;;;2.70;;
2211;SDS011;48849;48.758;9.158;2023-12-29T00:30:11;3.60;;;2.85;;
2211;SDS011;48849;48.758;9.158;2023-12-29T00:32:38;4.07;;;2.72;;
2211;SDS011;48849;48.758;9.158;2023-12-29T00:35:06;2.80;;;2.60;;
2211;SDS011;48849;48.758;9.158;2023-12-29T00:37:33;3.03;;;2.80;;
2211;SDS011;48849;48.758;9.158;2023-12-29T00:40:00;6.20;;;2.90;;
2211;SDS011;48849;48.758;9.158;2023-12-29T00:42:27;3.40;;;3.10;;
2211;SDS011;48849;48.758;9.158;2023-12-29T00:44:54;3.33;;;3.00;;
2211;SDS011;48849;48.758;9.158;2023-12-29T00:47:20;2.95;;;2.75;;
2211;SDS011;48849;48.758;9.158;2023-12-29T00:49:48;3.20;;;2.90;;
2211;SDS011;48849;48.758;9.158;2023-12-29T00:52:16;3.20;;;3.00;;
2211;SDS011;48849;48.758;9.158;2023-12-29T00:54:43;2.80;;;2.60;;
2211;SDS011;48849;48.758;9.158;2023-12-29T00:57:10;3.60;;;2.95;;
2211;SDS011;48849;48.758;9.158;2023-12-29T00:59:37;3.58;;;3.03;;
2211;SDS011;48849;48.758;9.158;2023-12-29T01:02:04;3.92;;;3.00;;
2211;SDS011;48849;48.758;9.158;2023-12-29T01:04:31;4.80;;;3.08;;
2211;SDS011;48849;48.758;9.158;2023-12-29T01:06:58;3.50;;;3.00;;
2211;SDS011;48849;48.758;9.158;2023-12-29T01:09:27;3.33;;;2.95;;
2211;SDS011;48849;48.758;9.158;2023-12-29T01:11:53;3.63;;;3.22;;
2211;SDS011;48849;48.758;9.158;2023-12-29T01:14:20;2.97;;;2.72;;
2211;SDS011;48849;48.758;9.158;2023-12-29T01:16:47;5.70;;;3.03;;
2211;SDS011;48849;48.758;9.158;2023-12-29T01:19:14;4.13;;;3.50;;
2211;SDS011;48849;48.758;9.158;2023-12-29T01:21:40;3.35;;;3.05;;
2211;SDS011;48849;48.758;9.158;2023-12-29T01:24:07;3.67;;;3.10;;
2211;SDS011;48849;48.758;9.158;2023-12-29T01:26:37;3.40;;;2.88;;
2211;SDS011;48849;48.758;9.158;2023-12-29T01:29:05;3.45;;;3.15;;
2211;SDS011;48849;48.758;9.158;2023-12-29T01:31:31;5.53;;;3.10;;
2211;SDS011;48849;48.758;9.158;2023-12-29T01:33:58;4.07;;;3.38;;
2211;SDS011;48849;48.758;9.158;2023-12-29T01:36:25;4.88;;;4.00;;
2211;SDS011;48849;48.758;9.158;2023-12-29T01:38:52;5.90;;;3.90;;
2211;SDS011;48849;48.758;9.158;2023-12-29T01:41:19;4.03;;;3.40;;
2211;SDS011;48849;48.758;9.158;2023-12-29T01:44:15;6.72;;;3.25;;
2211;SDS011;48849;48.758;9.158;2023-12-29T01:46:47;4.00;;;3.60;;
2211;SDS011;48849;48.758;9.158;2023-12-29T01:49:15;3.40;;;3.10;;
2211;SDS011;48849;48.758;9.158;2023-12-29T01:51:43;3.90;;;3.50;;
2211;SDS011;48849;48.758;9.158;2023-12-29T01:54:11;3.88;;;3.47;;
2211;SDS011;48849;48.758;9.158;2023-12-29T01:56:39;4.22;;;3.70;;
2211;SDS011;48849;48.758;9.158;2023-12-29T01:59:06;4.07;;;3.55;;
2211;SDS011;48849;48.758;9.158;2023-12-29T02:01:34;3.60;;;3.30;;
2211;SDS011;48849;48.758;9.158;2023-12-29T02:04:02;4.05;;;3.65;;
2211;SDS011;48849;48.758;9.158;2023-12-29T02:06:29;5.25;;;3.90;;
2211;SDS011;48849;48.758;9.158;2023-12-29T02:08:58;3.97;;;3.58;;
2211;SDS011;48849;48.758;9.158;2023-12-29T02:11:25;6.65;;;3.83;;
2211;SDS011;48849;48.758;9.158;2023-12-29T02:13:52;6.10;;;3.92;;
2211;SDS011;48849;48.758;9.158;2023-12-29T02:16:26;4.53;;;3.70;;
2211;SDS011;48849;48.758;9.158;2023-12-29T02:19:01;4.30;;;3.90;;
2211;SDS011;48849;48.758;9.158;2023-12-29T02:21:45;4.20;;;3.80;;
2211;SDS011;48849;48.758;9.158;2023-12-29T02:24:12;3.80;;;3.30;;
2211;SDS011;48849;48.758;9.158;2023-12-29T02:26:40;4.32;;;3.92;;
2211;SDS011;48849;48.758;9.158;2023-12-29T02:29:12;8.52;;;4.28;;
2211;SDS011;48849;48.758;9.158;2023-12-29T02:31:44;3.80;;;3.50;;
2211;SDS011;48849;48.758;9.158;2023-12-29T02:34:16;3.90;;;3.45;;
2211;SDS011;48849;48.758;9.158;2023-12-29T02:36:45;5.10;;;3.80;;
2211;SDS011;48849;48.758;9.158;2023-12-29T02:39:15;4.03;;;3.70;;
2211;SDS011;48849;48.758;9.158;2023-12-29T02:41:44;5.28;;;4.78;;
2211;SDS011;48849;48.758;9.158;2023-12-29T02:44:11;5.22;;;4.00;;
2211;SDS011;48849;48.758;9.158;2023-12-29T02:46:38;5.40;;;4.15;;
2211;SDS011;48849;48.758;9.158;2023-12-29T02:49:04;4.25;;;3.85;;
2211;SDS011;48849;48.758;9.158;2023-12-29T02:51:36;4.45;;;4.05;;
2211;SDS011;48849;48.758;9.158;2023-12-29T02:54:03;4.13;;;3.40;;
2211;SDS011;48849;48.758;9.158;2023-12-29T02:56:30;5.00;;;3.65;;
2211;SDS011;48849;48.758;9.158;2023-12-29T02:58:58;4.53;;;4.13;;
2211;SDS011;48849;48.758;9.158;2023-12-29T03:01:28;3.50;;;3.20;;
2211;SDS011;48849;48.758;9.158;2023-12-29T03:03:55;4.03;;;3.72;;
2211;SDS011;48849;48.758;9.158;2023-12-29T03:06:22;4.28;;;3.83;;
2211;SDS011;48849;48.758;9.158;2023-12-29T03:08:50;5.15;;;3.95;;
2211;SDS011;48849;48.758;9.158;2023-12-29T03:11:16;4.60;;;4.20;;
2211;SDS011;48849;48.758;9.158;2023-12-29T03:13:44;6.82;;;3.90;;
2211;SDS011;48849;48.758;9.158;2023-12-29T03:16:12;4.10;;;3.67;;
2211;SDS011;48849;48.758;9.158;2023-12-29T03:18:39;4.00;;;3.63;;
2211;SDS011;48849;48.758;9.158;2023-12-29T03:21:06;5.25;;;4.15;;
2211;SDS011;48849;48.758;9.158;2023-12-29T03:23:33;4.70;;;3.90;;
2211;SDS011;48849;48.758;9.158;2023-12-29T03:26:00;4.80;;;4.28;;
2211;SDS011;48849;48.758;9.158;2023-12-29T03:28:27;4.15;;;3.75;;
2211;SDS011;48849;48.758;9.158;2023-12-29T03:30:54;4.30;;;3.90;;
2211;SDS011;48849;48.758;9.158;2023-12-29T03:33:22;3.90;;;3.40;;
2211;SDS011;48849;48.758;9.158;2023-12-29T03:35:49;4.93;;;3.70;;
2211;SDS011;48849;48.758;9.158;2023-12-29T03:38:15;5.22;;;3.72;;
2211;SDS011;48849;48.758;9.158;2023-12-29T03:40:42;3.60;;;3.30;;
2211;SDS011;48849;48.758;9.158;2023-12-29T03:43:09;3.90;;;3.60;;
2211;SDS011;48849;48.758;9.158;2023-12-29T03:45:36;3.97;;;3.65;;
2211;SDS011;48849;48.758;9.158;2023-12-29T03:48:02;4.43;;;3.40;;
2211;SDS011;48849;48.758;9.158;2023-12-29T03:50:31;4.40;;;3.65;;
2211;SDS011;48849;48.758;9.158;2023-12-29T03:52:57;4.03;;;3.50;;
2211;SDS011;48849;48.758;9.158;2023-12-29T03:55:24;6.43;;;3.72;;
2211;SDS011;48849;48.758;9.158;2023-12-29T03:57:51;3.38;;;2.90;;
2211;SDS011;48849;48.758;9.158;2023-12-29T04:00:17;3.20;;;3.00;;
2211;SDS011;48849;48.758;9.158;2023-12-29T04:02:44;3.50;;;3.20;;
2211;SDS011;48849;48.758;9.158;2023-12-29T04:05:11;4.05;;;2.85;;
2211;SDS011;48849;48.758;9.158;2023-12-29T04:07:40;5.13;;;3.35;;
2211;SDS011;48849;48.758;9.158;2023-12-29T04:10:07;3.50;;;3.13;;
2211;SDS011;48849;48.758;9.158;2023-12-29T04:12:33;3.70;;;3.38;;
2211;SDS011;48849;48.758;9.158;2023-12-29T04:15:00;4.13;;;3.10;;
2211;SDS011;48849;48.758;9.158;2023-12-29T04:17:27;3.00;;;2.80;;
2211;SDS011;48849;48.758;9.158;2023-12-29T04:19:54;3.10;;;2.80;;
2211;SDS011;48849;48.758;9.158;2023-12-29T04:22:20;3.10;;;2.88;;
2211;SDS011;48849;48.758;9.158;2023-12-29T04:24:48;4.70;;;3.30;;
2211;SDS011;48849;48.758;9.158;2023-12-29T04:27:15;3.10;;;2.90;;
2211;SDS011;48849;48.758;9.158;2023-12-29T04:29:43;5.90;;;2.95;;
2211;SDS011;48849;48.758;9.158;2023-12-29T04:32:10;3.00;;;2.80;;
2211;SDS011;48849;48.758;9.158;2023-12-29T04:34:37;3.50;;;3.20;;
2211;SDS011;48849;48.758;9.158;2023-12-29T04:37:03;3.20;;;2.90;;
2211;SDS011;48849;48.758;9.158;2023-12-29T04:39:30;3.38;;;3.08;;
2211;SDS011;48849;48.758;9.158;2023-12-29T04:41:58;3.72;;;2.80;;
2211;SDS011;48849;48.758;9.158;2023-12-29T04:44:25;3.00;;;2.70;;
2211;SDS011;48849;48.758;9.158;2023-12-29T04:46:51;4.63;;;3.13;;
2211;SDS011;48849;48.758;9.158;2023-12-29T04:49:18;2.80;;;2.60;;
2211;SDS011;48849;48.758;9.158;2023-12-29T04:51:45;3.67;;;3.30;;
2211;SDS011;48849;48.758;9.158;2023-12-29T04:54:13;3.95;;;3.40;;
2211;SDS011;48849;48.758;9.158;2023-12-29T04:56:40;2.83;;;2.63;;
2211;SDS011;48849;48.758;9.158;2023-12-29T04:59:08;4.45;;;2.80;;
2211;SDS011;48849;48.758;9.158;2023-12-29T05:01:34;4.82;;;3.40;;
2211;SDS011;48849;48.758;9.158;2023-12-29T05:04:01;2.90;;;2.70;;
2211;SDS011;48849;48.758;9.158;2023-12-29T05:06:28;4.57;;;2.83;;
2211;SDS011;48849;48.758;9.158;2023-12-29T05:08:55;3.85;;;3.47;;
2211;SDS011;48849;48.758;9.158;2023-12-29T05:11:21;3.30;;;3.00;;
2211;SDS011;48849;48.758;9.158;2023-12-29T05:13:48;3.58;;;3.22;;
2211;SDS011;48849;48.758;9.158;2023-12-29T05:16:16;3.70;;;3.30;;
2211;SDS011;48849;48.758;9.158;2023-12-29T05:18:43;3.42;;;3.13;;
2211;SDS011;48849;48.758;9.158;2023-12-29T05:21:13;3.65;;;3.15;;
2211;SDS011;48849;48.758;9.158;2023-12-29T05:23:41;4.00;;;3.20;;
2211;SDS011;48849;48.758;9.158;2023-12-29T05:26:08;3.85;;;3.45;;
2211;SDS011;48849;48.758;9.158;2023-12-29T05:28:34;3.58;;;3.28;;
2211;SDS011;48849;48.758;9.158;2023-12-29T05:31:01;4.20;;;3.15;;
2211;SDS011;48849;48.758;9.158;2023-12-29T05:33:29;3.47;;;3.17;;
2211;SDS011;48849;48.758;9.158;2023-12-29T05:35:56;3.28;;;2.97;;
2211;SDS011;48849;48.758;9.158;2023-12-29T05:38:23;3.65;;;3.33;;
2211;SDS011;48849;48.758;9.158;2023-12-29T05:40:50;4.55;;;3.55;;
2211;SDS011;48849;48.758;9.158;2023-12-29T05:43:17;5.75;;;3.53;;
2211;SDS011;48849;48.758;9.158;2023-12-29T05:45:44;3.63;;;3.33;;
2211;SDS011;48849;48.758;9.158;2023-12-29T05:48:11;3.67;;;3.38;;
2211;SDS011;48849;48.758;9.158;2023-12-29T05:50:39;3.05;;;2.80;;
2211;SDS011;48849;48.758;9.158;2023-12-29T05:53:06;3.30;;;3.00;;
2211;SDS011;48849;48.758;9.158;2023-12-29T05:55:33;4.50;;;3.05;;
2211;SDS011;48849;48.758;9.158;2023-12-29T05:57:59;3.80;;;3.50;;
2211;SDS011;48849;48.758;9.158;2023-12-29T06:00:26;3.70;;;3.40;;
2211;SDS011;48849;48.758;9.158;2023-12-29T06:02:53;4.75;;;3.30;;
2211;SDS011;48849;48.758;9.158;2023-12-29T06:05:19;3.55;;;3.25;;
2211;SDS011;48849;48.758;9.158;2023-12-29T06:07:47;4.57;;;3.30;;
2211;SDS011;48849;48.758;9.158;2023-12-29T06:10:14;3.67;;;3.10;;
2211;SDS011;48849;48.758;9.158;2023-12-29T06:12:41;6.43;;;3.40;;
2211;SDS011;48849;48.758;9.158;2023-12-29T06:15:08;3.55;;;3.25;;
2211;SDS011;48849;48.758;9.158;2023-12-29T06:17:35;3.47;;;3.17;;
2211;SDS011;48849;48.758;9.158;2023-12-29T06:20:01;3.38;;;3.08;;
2211;SDS011;48849;48.758;9.158;2023-12-29T06:22:30;3.38;;;3.08;;
2211;SDS011;48849;48.758;9.158;2023-12-29T06:24:58;3.80;;;3.50;;
2211;SDS011;48849;48.758;9.158;2023-12-29T06:27:25;5.40;;;3.20;;
2211;SDS011;48849;48.758;9.158;2023-12-29T06:29:53;4.25;;;3.85;;
2211;SDS011;48849;48.758;9.158;2023-12-29T06:32:19;5.75;;;3.78;;
2211;SDS011;48849;48.758;9.158;2023-12-29T06:34:47;3.75;;;3.45;;
2211;SDS011;48849;48.758;9.158;2023-12-29T06:37:14;3.30;;;3.00;;
2211;SDS011;48849;48.758;9.158;2023-12-29T06:39:40;3.65;;;3.35;;
2211;SDS011;48849;48.758;9.158;2023-12-29T06:42:08;3.30;;;3.03;;
2211;SDS011;48849;48.758;9.158;2023-12-29T06:44:35;3.33;;;3.08;;
2211;SDS011;48849;48.758;9.158;2023-12-29T06:47:02;3.63;;;3.10;;
2211;SDS011;48849;48.758;9.158;2023-12-29T06:49:30;3.45;;;3.15;;
2211;SDS011;48849;48.758;9.158;2023-12-29T06:51:57;3.20;;;2.90;;
2211;SDS011;48849;48.758;9.158;2023-12-29T06:54:24;4.07;;;3.20;;
2211;SDS011;48849;48.758;9.158;2023-12-29T06:56:51;3.13;;;2.92;;
2211;SDS011;48849;48.758;9.158;2023-12-29T06:59:19;4.78;;;3.20;;
2211;SDS011;48849;48.758;9.158;2023-12-29T07:01:46;2.90;;;2.70;;
2211;SDS011;48849;48.758;9.158;2023-12-29T07:04:13;3.33;;;3.03;;
2211;SDS011;48849;48.758;9.158;2023-12-29T07:06:40;4.55;;;2.88;;
2211;SDS011;48849;48.758;9.158;2023-12-29T07:09:07;3.00;;;2.80;;
2211;SDS011;48849;48.758;9.158;2023-12-29T07:11:34;3.58;;;3.28;;
2211;SDS011;48849;48.758;9.158;2023-12-29T07:14:01;3.00;;;2.80;;
2211;SDS011;48849;48.758;9.158;2023-12-29T07:16:29;3.25;;;2.95;;
2211;SDS011;48849;48.758;9.158;2023-12-29T07:18:56;3.70;;;3.40;;
2211;SDS011;48849;48.758;9.158;2023-12-29T07:21:23;3.30;;;3.00;;
2211;SDS011;48849;48.758;9.158;2023-12-29T07:23:50;3.63;;;3.33;;
2211;SDS011;48849;48.758;9.158;2023-12-29T07:26:16;4.35;;;3.20;;
2211;SDS011;48849;48.758;9.158;2023-12-29T07:28:43;4.47;;;3.60;;
2211;SDS011;48849;48.758;9.158;2023-12-29T07:31:10;3.20;;;2.90;;
2211;SDS011;48849;48.758;9.158;2023-12-29T07:33:38;4.90;;;3.15;;
2211;SDS011;48849;48.758;9.158;2023-12-29T07:36:05;2.70;;;2.50;;
2211;SDS011;48849;48.758;9.158;2023-12-29T07:38:32;2.90;;;2.70;;
2211;SDS011;48849;48.758;9.158;2023-12-29T07:40:59;3.72;;;2.90;;
2211;SDS011;48849;48.758;9.158;2023-12-29T07:43:26;3.03;;;2.83;;
2211;SDS011;48849;48.758;9.158;2023-12-29T07:45:53;2.97;;;2.70;;
2211;SDS011;48849;48.758;9.158;2023-12-29T07:48:20;2.88;;;2.65;;
2211;SDS011;48849;48.758;9.158;2023-12-29T07:50:48;2.90;;;2.70;;
2211;SDS011;48849;48.758;9.158;2023-12-29T07:53:14;2.90;;;2.70;;
2211;SDS011;48849;48.758;9.158;2023-12-29T07:55:42;2.67;;;2.47;;
2211;SDS011;48849;48.758;9.158;2023-12-29T07:58:11;3.13;;;2.83;;
2211;SDS011;48849;48.758;9.158;2023-12-29T08:00:38;3.20;;;2.90;;
2211;SDS011;48849;48.758;9.158;2023-12-29T08:03:04;2.92;;;2.70;;
2211;SDS011;48849;48.758;9.158;2023-12-29T08:05:32;2.35;;;2.15;;
2211;SDS011;48849;48.758;9.158;2023-12-29T08:08:01;3.97;;;2.95;;
2211;SDS011;48849;48.758;9.158;2023-12-29T08:10:28;3.20;;;2.88;;
2211;SDS011;48849;48.758;9.158;2023-12-29T08:12:54;3.13;;;2.83;;
2211;SDS011;48849;48.758;9.158;2023-12-29T08:15:21;3.08;;;2.78;;
2211;SDS011;48849;48.758;9.158;2023-12-29T08:17:47;3.30;;;2.80;;
2211;SDS011;48849;48.758;9.158;2023-12-29T08:20:14;2.85;;;2.63;;
2211;SDS011;48849;48.758;9.158;2023-12-29T08:22:41;3.95;;;3.53;;
2211;SDS011;48849;48.758;9.158;2023-12-29T08:25:09;4.60;;;4.20;;
2211;SDS011;48849;48.758;9.158;2023-12-29T08:27:36;5.32;;;3.80;;
2211;SDS011;48849;48.758;9.158;2023-12-29T08:30:03;4.28;;;2.80;;
2211;SDS011;48849;48.758;9.158;2023-12-29T08:32:31;3.55;;;3.03;;
2211;SDS011;48849;48.758;9.158;2023-12-29T08:34:58;3.67;;;2.97;;
2211;SDS011;48849;48.758;9.158;2023-12-29T08:37:25;2.90;;;2.70;;
2211;SDS011;48849;48.758;9.158;2023-12-29T08:39:52;3.05;;;2.75;;
2211;SDS011;48849;48.758;9.158;2023-12-29T08:42:21;3.30;;;3.00;;
2211;SDS011;48849;48.758;9.158;2023-12-29T08:44:47;3.17;;;2.88;;
2211;SDS011;48849;48.758;9.158;2023-12-29T08:47:14;3.35;;;2.80;;
2211;SDS011;48849;48.758;9.158;2023-12-29T08:49:41;2.88;;;2.65;;
2211;SDS011;48849;48.758;9.158;2023-12-29T08:52:08;2.70;;;2.50;;
2211;SDS011;48849;48.758;9.158;2023-12-29T08:54:35;3.35;;;3.03;;
2211;SDS011;48849;48.758;9.158;2023-12-29T08:57:02;3.35;;;3.05;;
2211;SDS011;48849;48.758;9.158;2023-12-29T08:59:30;3.70;;;3.17;;
2211;SDS011;48849;48.758;9.158;2023-12-29T09:01:57;3.22;;;2.92;;
2211;SDS011;48849;48.758;9.158;2023-12-29T09:04:24;3.67;;;2.80;;
2211;SDS011;48849;48.758;9.158;2023-12-29T09:06:51;3.20;;;2.92;;
2211;SDS011;48849;48.758;9.158;2023-12-29T09:09:18;3.30;;;3.00;;
2211;SDS011;48849;48.758;9.158;2023-12-29T09:11:45;3.80;;;3.50;;
2211;SDS011;48849;48.758;9.158;2023-12-29T09:14:12;5.13;;;4.63;;
2211;SDS011;48849;48.758;9.158;2023-12-29T09:16:40;5.35;;;3.00;;
2211;SDS011;48849;48.758;9.158;2023-12-29T09:19:07;3.63;;;3.28;;
2211;SDS011;48849;48.758;9.158;2023-12-29T09:21:34;4.07;;;3.28;;
2211;SDS011;48849;48.758;9.158;2023-12-29T09:24:01;3.22;;;2.92;;
2211;SDS011;48849;48.758;9.158;2023-12-29T09:26:28;3.17;;;2.88;;
2211;SDS011;48849;48.758;9.158;2023-12-29T09:28:54;5.53;;;3.20;;
2211;SDS011;48849;48.758;9.158;2023-12-29T09:31:21;5.60;;;2.90;;
2211;SDS011;48849;48.758;9.158;2023-12-29T09:33:49;2.55;;;2.35;;
2211;SDS011;48849;48.758;9.158;2023-12-29T09:36:16;4.28;;;3.08;;
2211;SDS011;48849;48.758;9.158;2023-12-29T09:38:43;2.60;;;2.03;;
2211;SDS011;48849;48.758;9.158;2023-12-29T09:41:11;3.10;;;2.83;;
2211;SDS011;48849;48.758;9.158;2023-12-29T09:43:41;4.72;;;2.80;;
2211;SDS011;48849;48.758;9.158;2023-12-29T09:46:08;2.92;;;2.63;;
2211;SDS011;48849;48.758;9.158;2023-12-29T09:48:36;2.15;;;1.95;;
2211;SDS011;48849;48.758;9.158;2023-12-29T09:51:05;2.53;;;2.33;;
2211;SDS011;48849;48.758;9.158;2023-12-29T09:53:32;2.70;;;2.50;;
2211;SDS011;48849;48.758;9.158;2023-12-29T09:56:02;4.85;;;2.50;;
2211;SDS011;48849;48.758;9.158;2023-12-29T09:58:31;3.13;;;2.50;;
2211;SDS011;48849;48.758;9.158;2023-12-29T10:00:59;3.45;;;2.25;;
2211;SDS011;48849;48.758;9.158;2023-12-29T10:03:27;2.53;;;2.20;;
2211;SDS011;48849;48.758;9.158;2023-12-29T10:05:54;3.40;;;2.17;;
2211;SDS011;48849;48.758;9.158;2023-12-29T10:08:24;2.70;;;2.50;;
2211;SDS011;48849;48.758;9.158;2023-12-29T10:10:52;2.78;;;2.58;;
2211;SDS011;48849;48.758;9.158;2023-12-29T10:13:20;2.65;;;2.30;;
2211;SDS011;48849;48.758;9.158;2023-12-29T10:15:49;2.40;;;2.20;;
2211;SDS011;48849;48.758;9.158;2023-12-29T10:18:22;2.88;;;2.35;;
2211;SDS011;48849;48.758;9.158;2023-12-29T10:20:56;2.40;;;2.20;;
2211;SDS011;48849;48.758;9.158;2023-12-29T10:23:32;3.20;;;2.90;;
2211;SDS011;48849;48.758;9.158;2023-12-29T10:26:04;3.78;;;3.33;;
2211;SDS011;48849;48.758;9.158;2023-12-29T10:28:31;3.65;;;3.33;;
2211;SDS011;48849;48.758;9.158;2023-12-29T10:30:58;7.15;;;3.60;;
2211;SDS011;48849;48.758;9.158;2023-12-29T10:33:25;2.60;;;2.40;;
2211;SDS011;48849;48.758;9.158;2023-12-29T10:35:58;3.30;;;3.00;;
2211;SDS011;48849;48.758;9.158;2023-12-29T10:38:29;3.00;;;2.70;;
2211;SDS011;48849;48.758;9.158;2023-12-29T10:41:00;1.92;;;1.83;;
2211;SDS011;48849;48.758;9.158;2023-12-29T10:43:37;2.30;;;2.10;;
2211;SDS011;48849;48.758;9.158;2023-12-29T10:46:05;1.92;;;1.70;;
2211;SDS011;48849;48.758;9.158;2023-12-29T10:48:32;2.10;;;1.90;;
2211;SDS011;48849;48.758;9.158;2023-12-29T10:50:59;2.15;;;1.95;;
2211;SDS011;48849;48.758;9.158;2023-12-29T10:53:30;1.80;;;1.70;;
2211;SDS011;48849;48.758;9.158;2023-12-29T10:55:57;2.30;;;1.60;;
2211;SDS011;48849;48.758;9.158;2023-12-29T10:58:24;1.80;;;1.70;;
2211;SDS011;48849;48.758;9.158;2023-12-29T11:00:52;3.15;;;1.88;;
2211;SDS011;48849;48.758;9.158;2023-12-29T11:03:19;2.47;;;2.10;;
2211;SDS011;48849;48.758;9.158;2023-12-29T11:05:46;2.85;;;2.30;;
2211;SDS011;48849;48.758;9.158;2023-12-29T11:08:16;3.88;;;1.88;;
2211;SDS011;48849;48.758;9.158;2023-12-29T11:10:45;1.70;;;1.60;;
2211;SDS011;48849;48.758;9.158;2023-12-29T11:13:14;2.60;;;2.00;;
2211;SDS011;48849;48.758;9.158;2023-12-29T11:15:41;1.95;;;1.75;;
2211;SDS011;48849;48.758;9.158;2023-12-29T11:18:09;1.58;;;1.48;;
2211;SDS011;48849;48.758;9.158;2023-12-29T11:20:39;2.10;;;1.85;;
2211;SDS011;48849;48.758;9.158;2023-12-29T11:23:06;2.00;;;1.80;;
2211;SDS011;48849;48.758;9.158;2023-12-29T11:25:34;2.10;;;1.90;;
2211;SDS011;48849;48.758;9.158;2023-12-29T11:28:03;4.22;;;1.92;;
2211;SDS011;48849;48.758;9.158;2023-12-29T11:30:30;2.13;;;1.92;;
2211;SDS011;48849;48.758;9.158;2023-12-29T11:32:57;2.20;;;2.00;;
2211;SDS011;48849;48.758;9.158;2023-12-29T11:35:30;2.30;;;1.67;;
2211;SDS011;48849;48.758;9.158;2023-12-29T11:38:08;4.13;;;2.05;;
2211;SDS011;48849;48.758;9.158;2023-12-29T11:40:52;1.90;;;1.70;;
2211;SDS011;48849;48.758;9.158;2023-12-29T11:43:25;2.00;;;1.80;;
2211;SDS011;48849;48.758;9.158;2023-12-29T11:45:52;2.08;;;1.80;;
2211;SDS011;48849;48.758;9.158;2023-12-29T11:51:29;1.90;;;1.55;;
2211;SDS011;48849;48.758;9.158;2023-12-29T11:53:57;1.70;;;1.60;;
2211;SDS011;48849;48.758;9.158;2023-12-29T11:56:24;1.58;;;1.40;;
2211;SDS011;48849;48.758;9.158;2023-12-29T11:58:58;2.63;;;1.70;;
2211;SDS011;48849;48.758;9.158;2023-12-29T12:01:38;1.70;;;1.60;;
2211;SDS011;48849;48.758;9.158;2023-12-29T12:04:15;1.48;;;1.35;;
2211;SDS011;48849;48.758;9.158;2023-12-29T12:07:06;1.73;;;1.52;;
2211;SDS011;48849;48.758;9.158;2023-12-29T12:09:34;1.77;;;1.50;;
2211;SDS011;48849;48.758;9.158;2023-12-29T12:12:01;2.30;;;1.65;;
2211;SDS011;48849;48.758;9.158;2023-12-29T12:17:26;2.75;;;1.70;;
2211;SDS011;48849;48.758;9.158;2023-12-29T12:19:57;1.80;;;1.65;;
2211;SDS011;48849;48.758;9.158;2023-12-29T12:22:24;1.52;;;1.42;;
2211;SDS011;48849;48.758;9.158;2023-12-29T12:24:55;2.15;;;1.60;;
2211;SDS011;48849;48.758;9.158;2023-12-29T12:27:23;2.05;;;1.63;;
2211;SDS011;48849;48.758;9.158;2023-12-29T12:29:53;1.77;;;1.67;;
2211;SDS011;48849;48.758;9.158;2023-12-29T12:32:24;2.33;;;1.50;;
2211;SDS011;48849;48.758;9.158;2023-12-29T12:34:51;1.65;;;1.38;;
2211;SDS011;48849;48.758;9.158;2023-12-29T12:37:18;2.08;;;1.30;;
2211;SDS011;48849;48.758;9.158;2023-12-29T12:39:45;1.70;;;1.60;;
2211;SDS011;48849;48.758;9.158;2023-12-29T12:42:12;1.63;;;1.52;;
2211;SDS011;48849;48.758;9.158;2023-12-29T12:44:40;2.17;;;1.98;;
2211;SDS011;48849;48.758;9.158;2023-12-29T12:47:18;1.80;;;1.65;;
2211;SDS011;48849;48.758;9.158;2023-12-29T12:49:52;1.95;;;1.83;;
2211;SDS011;48849;48.758;9.158;2023-12-29T12:52:18;2.20;;;2.00;;
2211;SDS011;48849;48.758;9.158;2023-12-29T12:54:45;2.40;;;2.20;;
2211;SDS011;48849;48.758;9.158;2023-12-29T12:57:13;2.20;;;2.00;;
2211;SDS011;48849;48.758;9.158;2023-12-29T12:59:45;1.90;;;1.70;;
2211;SDS011;48849;48.758;9.158;2023-12-29T13:02:11;2.17;;;1.90;;
2211;SDS011;48849;48.758;9.158;2023-12-29T13:04:40;1.65;;;1.55;;
2211;SDS011;48849;48.758;9.158;2023-12-29T13:07:08;1.77;;;1.67;;
2211;SDS011;48849;48.758;9.158;2023-12-29T13:09:36;1.90;;;1.60;;
2211;SDS011;48849;48.758;9.158;2023-12-29T13:12:09;2.63;;;1.70;;
2211;SDS011;48849;48.758;9.158;2023-12-29T13:14:37;1.60;;;1.50;;
2211;SDS011;48849;48.758;9.158;2023-12-29T13:17:05;1.70;;;1.60;;
2211;SDS011;48849;48.758;9.158;2023-12-29T13:19:32;2.33;;;1.60;;
2211;SDS011;48849;48.758;9.158;2023-12-29T13:22:01;2.45;;;1.38;;
2211;SDS011;48849;48.758;9.158;2023-12-29T13:24:32;2.50;;;1.77;;
2211;SDS011;48849;48.758;9.158;2023-12-29T13:27:02;1.40;;;1.30;;
2211;SDS011;48849;48.758;9.158;2023-12-29T13:29:30;2.40;;;1.58;;
2211;SDS011;48849;48.758;9.158;2023-12-29T13:31:58;2.15;;;1.70;;
2211;SDS011;48849;48.758;9.158;2023-12-29T13:34:28;2.10;;;1.30;;
2211;SDS011;48849;48.758;9.158;2023-12-29T13:37:02;2.65;;;1.83;;
2211;SDS011;48849;48.758;9.158;2023-12-29T13:39:34;1.92;;;1.65;;
2211;SDS011;48849;48.758;9.158;2023-12-29T13:42:05;2.67;;;2.15;;
2211;SDS011;48849;48.758;9.158;2023-12-29T13:44:37;1.95;;;1.60;;
2211;SDS011;48849;48.758;9.158;2023-12-29T13:47:06;1.70;;;1.60;;
2211;SDS011;48849;48.758;9.158;2023-12-29T13:49:34;2.80;;;1.70;;
2211;SDS011;48849;48.758;9.158;2023-12-29T13:52:03;1.77;;;1.63;;
2211;SDS011;48849;48.758;9.158;2023-12-29T13:54:30;3.60;;;2.20;;
2211;SDS011;48849;48.758;9.158;2023-12-29T13:57:06;2.08;;;1.83;;
2211;SDS011;48849;48.758;9.158;2023-12-29T13:59:33;2.03;;;1.77;;
2211;SDS011;48849;48.758;9.158;2023-12-29T14:02:02;1.40;;;1.30;;
2211;SDS011;48849;48.758;9.158;2023-12-29T14:04:44;5.35;;;1.70;;
2211;SDS011;48849;48.758;9.158;2023-12-29T14:07:12;2.60;;;1.45;;
2211;SDS011;48849;48.758;9.158;2023-12-29T14:09:40;8.45;;;2.55;;
2211;SDS011;48849;48.758;9.158;2023-12-29T14:12:07;11.88;;;2.50;;
2211;SDS011;48849;48.758;9.158;2023-12-29T14:14:34;2.35;;;1.67;;
2211;SDS011;48849;48.758;9.158;2023-12-29T14:17:01;1.60;;;1.50;;
2211;SDS011;48849;48.758;9.158;2023-12-29T14:19:33;2.78;;;1.80;;
2211;SDS011;48849;48.758;9.158;2023-12-29T14:22:01;3.38;;;1.80;;
2211;SDS011;48849;48.758;9.158;2023-12-29T14:24:29;1.90;;;1.70;;
2211;SDS011;48849;48.758;9.158;2023-12-29T14:26:56;8.48;;;2.58;;
2211;SDS011;48849;48.758;9.158;2023-12-29T14:29:24;2.15;;;1.70;;
2211;SDS011;48849;48.758;9.158;2023-12-29T14:31:51;3.38;;;1.83;;
2211;SDS011;48849;48.758;9.158;2023-12-29T14:34:19;2.00;;;1.60;;
2211;SDS011;48849;48.758;9.158;2023-12-29T14:36:45;1.88;;;1.60;;
2211;SDS011;48849;48.758;9.158;2023-12-29T14:39:12;5.82;;;4.25;;
2211;SDS011;48849;48.758;9.158;2023-12-29T14:41:41;15.02;;;9.00;;
2211;SDS011;48849;48.758;9.158;2023-12-29T14:44:08;6.30;;;4.65;;
2211;SDS011;48849;48.758;9.158;2023-12-29T14:46:36;4.30;;;3.10;;
2211;SDS011;48849;48.758;9.158;2023-12-29T14:49:03;3.45;;;2.80;;
2211;SDS011;48849;48.758;9.158;2023-12-29T14:51:30;4.82;;;3.30;;
2211;SDS011;48849;48.758;9.158;2023-12-29T14:53:56;3.40;;;2.30;;
2211;SDS011;48849;48.758;9.158;2023-12-29T14:56:23;3.47;;;2.10;;
2211;SDS011;48849;48.758;9.158;2023-12-29T14:58:51;2.95;;;2.10;;
2211;SDS011;48849;48.758;9.158;2023-12-29T15:01:18;4.28;;;2.40;;
2211;SDS011;48849;48.758;9.158;2023-12-29T15:03:44;2.30;;;2.10;;
2211;SDS011;48849;48.758;9.158;2023-12-29T15:06:10;2.27;;;1.90;;
2211;SDS011;48849;48.758;9.158;2023-12-29T15:08:37;2.08;;;1.58;;
2211;SDS011;48849;48.758;9.158;2023-12-29T15:11:04;2.10;;;1.60;;